Peeples Valley, Arizona
Current Conditions -  °F | °C
As of 1:53 PM on Saturday 22 Nov 2014 (Local Time) from KPRC Reporting Station
Clear Clear  
Wind Chill: 61°   Ceiling: Unl
Heat Index: 61°   Visibility: 10mi
Dew Point: 14°   Wind: 16mph
Humidity: 16%   Direction: 260°W
Pressure: 30.05"   Gusts: NA
Location:  34.4627°N, 112.899°W
Report Text: KPRC 222053Z 26014KT 10SM CLR 16/M10 A3005 RMK AO2 SLP141 T01611100 56029
Loading
Personal Weather Stations






























Interactive Weather Map New forecast layout! Learn more

10-Day Weather Forecast

Advertisements
Track Severe Weather on mobile